Eurika — LYRZ — position and weather

sailwx.info

Track history (hours):
 
Tides and Currents Weather Stations Pressure Air Temp Water Temp Dewpoint Dewpoint Depression Visibility Wind Speed Wind Dir Waves Ship Positions

Eurika

Last reported at 2015-Aug-27 09:20 UTC. Time now 2015-Aug-30 13:59 UTC.
Position N 43°23' E 004°49'.

Length 79 m; draft 2.4 m.

MMSI: 277335000.

Date/timePositionNaut miles runAvg speedWind from/ knotsBaromVisibWave heightAir tempDewpointWater temp
2015-Aug-27 09:20N 43°23' E 004°49'4 5.7
2015-Aug-27 08:33N 43°24' E 004°55'7 6.8
2015-Aug-27 07:34N 43°18' E 005°00'5 4.6
2015-Aug-27 06:33N 43°14' E 005°03'  
2015-Aug-22 15:08N 42°49' E 005°28'29 8.1
2015-Aug-22 11:32N 43°13' E 005°05'8 8.6
2015-Aug-22 10:33N 43°20' E 004°58'7 7.0
2015-Aug-22 09:33N 43°23' E 004°50'1 1.1
2015-Aug-22 08:33N 43°23' E 004°48'0 0.0
2015-Aug-22 07:32N 43°23' E 004°48'0 0.0
2015-Aug-22 06:33N 43°23' E 004°48'0 0.0
2015-Aug-22 05:33N 43°23' E 004°48'0 0.0
2015-Aug-21 18:33N 43°23' E 004°48'0 0.0
2015-Aug-21 17:33N 43°23' E 004°48'0 0.0
2015-Aug-21 16:33N 43°23' E 004°48'0 0.0
2015-Aug-21 15:27N 43°23' E 004°48'0 0.0
2015-Aug-21 14:33N 43°23' E 004°48'0 0.0
2015-Aug-21 13:16N 43°23' E 004°48'0 0.0
2015-Aug-21 12:32N 43°23' E 004°48'0 0.0
2015-Aug-21 11:34N 43°23' E 004°48'5 4.7
2015-Aug-21 10:33N 43°26' E 004°44'11 8.1
2015-Aug-21 09:14N 43°36' E 004°39'  
Track history (hours):
 
Tides and Currents Weather Stations Pressure Air Temp Water Temp Dewpoint Dewpoint Depression Visibility Wind Speed Wind Dir Waves Ship Positions

Eurika

Last reported at 2015-Aug-27 09:20 UTC. Time now 2015-Aug-30 13:59 UTC.
Position N 43°23' E 004°49'.

Length 79 m; draft 2.4 m.

MMSI: 277335000.

Date/timePositionNaut miles runAvg speedWind from/ knotsBaromVisibWave heightAir tempDewpointWater temp
2015-Aug-27 09:20N 43°23' E 004°49'4 5.7
2015-Aug-27 08:33N 43°24' E 004°55'7 6.8
2015-Aug-27 07:34N 43°18' E 005°00'5 4.6
2015-Aug-27 06:33N 43°14' E 005°03'  
2015-Aug-22 15:08N 42°49' E 005°28'29 8.1
2015-Aug-22 11:32N 43°13' E 005°05'8 8.6
2015-Aug-22 10:33N 43°20' E 004°58'7 7.0
2015-Aug-22 09:33N 43°23' E 004°50'1 1.1
2015-Aug-22 08:33N 43°23' E 004°48'0 0.0
2015-Aug-22 07:32N 43°23' E 004°48'0 0.0
2015-Aug-22 06:33N 43°23' E 004°48'0 0.0
2015-Aug-22 05:33N 43°23' E 004°48'0 0.0
2015-Aug-21 18:33N 43°23' E 004°48'0 0.0
2015-Aug-21 17:33N 43°23' E 004°48'0 0.0
2015-Aug-21 16:33N 43°23' E 004°48'0 0.0
2015-Aug-21 15:27N 43°23' E 004°48'0 0.0
2015-Aug-21 14:33N 43°23' E 004°48'0 0.0
2015-Aug-21 13:16N 43°23' E 004°48'0 0.0
2015-Aug-21 12:32N 43°23' E 004°48'0 0.0
2015-Aug-21 11:34N 43°23' E 004°48'5 4.7
2015-Aug-21 10:33N 43°26' E 004°44'11 8.1
2015-Aug-21 09:14N 43°36' E 004°39'  

Dump ship's entire track history